Time,TemperatureF,DewpointF,PressureIn,WindDirection,WindDirectionDegrees,WindSpeedMPH,WindSpeedGustMPH,Humidity,HourlyPrecipIn,Conditions,Clouds,dailyrainin,SoftwareType,DateUTC
2013-02-23 00:07:00,32.2,29.9,30.23,SSW,202,3.1,-999.0,91,-99.99,,,0.00,Acu-Link.com,2013-02-23 05:07:00,
2013-02-23 00:22:00,31.6,30.4,30.23,SSW,202,2.2,-999.0,95,-99.99,,,0.00,Acu-Link.com,2013-02-23 05:22:00,
2013-02-23 00:38:00,31.3,30.3,30.23,SSW,202,0.0,-999.0,96,-99.99,,,0.00,Acu-Link.com,2013-02-23 05:38:00,
2013-02-23 00:53:00,31.1,30.3,30.22,SSW,202,0.0,-999.0,97,-99.99,,,0.00,Acu-Link.com,2013-02-23 05:53:00,
2013-02-23 01:08:00,30.9,30.4,30.22,SSW,202,0.0,-999.0,98,-99.99,,,0.00,Acu-Link.com,2013-02-23 06:08:00,
2013-02-23 01:24:00,30.9,30.4,30.22,SSW,202,0.0,-999.0,98,-99.99,,,0.00,Acu-Link.com,2013-02-23 06:24:00,
2013-02-23 01:39:00,30.7,30.2,30.22,SSW,202,1.6,-999.0,98,-99.99,,,0.00,Acu-Link.com,2013-02-23 06:39:00,
2013-02-23 01:54:00,30.7,30.2,30.22,SSW,202,0.0,-999.0,98,-99.99,,,0.00,Acu-Link.com,2013-02-23 06:54:00,
2013-02-23 02:09:00,30.7,30.2,30.21,SSW,202,0.0,-999.0,98,-99.99,,,0.00,Acu-Link.com,2013-02-23 07:09:00,
2013-02-23 02:24:00,30.7,30.2,30.21,SSW,202,0.0,-999.0,98,-99.99,,,0.00,Acu-Link.com,2013-02-23 07:24:00,
2013-02-23 02:40:00,30.6,30.1,30.19,SSW,202,0.0,-999.0,98,-99.99,,,0.00,Acu-Link.com,2013-02-23 07:40:00,
2013-02-23 02:55:00,30.6,30.1,30.18,SSW,202,0.0,-999.0,98,-99.99,,,0.00,Acu-Link.com,2013-02-23 07:55:00,
2013-02-23 03:10:00,30.6,30.1,30.17,SSW,202,0.0,-999.0,98,-99.99,,,0.00,Acu-Link.com,2013-02-23 08:10:00,
2013-02-23 03:26:00,30.6,30.1,30.17,SSW,202,0.0,-999.0,98,-99.99,,,0.00,Acu-Link.com,2013-02-23 08:26:00,
2013-02-23 03:41:00,30.6,30.1,30.16,SSW,202,0.0,-999.0,98,-99.99,,,0.00,Acu-Link.com,2013-02-23 08:41:00,
2013-02-23 03:56:00,30.6,30.1,30.16,SSW,202,0.0,-999.0,98,-99.99,,,0.00,Acu-Link.com,2013-02-23 08:56:00,
2013-02-23 04:20:00,30.6,30.1,30.16,SSW,202,0.0,-999.0,98,-99.99,,,0.00,Acu-Link.com,2013-02-23 09:20:00,
2013-02-23 04:35:00,30.6,30.1,30.16,SSW,202,0.0,-999.0,98,-99.99,,,0.00,Acu-Link.com,2013-02-23 09:35:00,
2013-02-23 04:51:00,30.6,30.1,30.15,SSW,202,0.0,-999.0,98,-99.99,,,0.00,Acu-Link.com,2013-02-23 09:51:00,
2013-02-23 05:06:00,30.7,30.2,30.15,SSW,202,0.0,-999.0,98,-99.99,,,0.00,Acu-Link.com,2013-02-23 10:06:00,
2013-02-23 05:21:00,30.7,30.2,30.15,SSW,202,0.0,-999.0,98,-99.99,,,0.00,Acu-Link.com,2013-02-23 10:21:00,
2013-02-23 05:36:00,30.7,30.2,30.15,SSW,202,0.0,-999.0,98,-99.99,,,0.00,Acu-Link.com,2013-02-23 10:36:00,
2013-02-23 05:51:00,30.7,30.2,30.14,SSW,202,0.0,-999.0,98,-99.99,,,0.00,Acu-Link.com,2013-02-23 10:51:00,
2013-02-23 06:07:00,30.7,30.2,30.14,SSW,202,0.0,-999.0,98,-99.99,,,0.00,Acu-Link.com,2013-02-23 11:07:00,
2013-02-23 06:22:00,30.7,30.2,30.14,SSW,202,0.0,-999.0,98,-99.99,,,0.00,Acu-Link.com,2013-02-23 11:22:00,
2013-02-23 06:37:00,30.9,30.4,30.13,SSW,202,0.0,-999.0,98,-99.99,,,0.00,Acu-Link.com,2013-02-23 11:37:00,
2013-02-23 06:52:00,30.9,30.4,30.12,SSW,202,0.0,-999.0,98,-99.99,,,0.00,Acu-Link.com,2013-02-23 11:52:00,
2013-02-23 07:08:00,31.1,30.6,30.13,SSW,202,0.0,-999.0,98,-99.99,,,0.00,Acu-Link.com,2013-02-23 12:08:00,
2013-02-23 07:23:00,31.3,30.8,30.12,SSW,202,0.0,-999.0,98,-99.99,,,0.00,Acu-Link.com,2013-02-23 12:23:00,
2013-02-23 07:38:00,31.6,31.1,30.12,SSW,202,0.0,-999.0,98,-99.99,,,0.00,Acu-Link.com,2013-02-23 12:38:00,
2013-02-23 07:53:00,32.0,31.5,30.12,SSW,202,0.0,-999.0,98,-99.99,,,0.00,Acu-Link.com,2013-02-23 12:53:00,
2013-02-23 08:08:00,32.4,31.9,30.12,SSW,202,0.0,-999.0,98,-99.99,,,0.00,Acu-Link.com,2013-02-23 13:08:00,
2013-02-23 08:23:00,32.7,32.2,30.12,SSW,202,0.0,-999.0,98,-99.99,,,0.00,Acu-Link.com,2013-02-23 13:23:00,
2013-02-23 08:39:00,32.9,32.4,30.11,SSW,202,0.0,-999.0,98,-99.99,,,0.00,Acu-Link.com,2013-02-23 13:39:00,
2013-02-23 08:54:00,33.1,32.6,30.10,SSW,202,0.0,-999.0,98,-99.99,,,0.00,Acu-Link.com,2013-02-23 13:54:00,
2013-02-23 09:09:00,33.6,33.1,30.10,SSW,202,0.0,-999.0,98,-99.99,,,0.00,Acu-Link.com,2013-02-23 14:09:00,
2013-02-23 09:24:00,34.0,33.5,30.10,SSW,202,0.0,-999.0,98,-99.99,,,0.00,Acu-Link.com,2013-02-23 14:24:00,
2013-02-23 09:39:00,34.2,33.7,30.09,SSW,202,0.0,-999.0,98,-99.99,,,0.01,Acu-Link.com,2013-02-23 14:39:00,
2013-02-23 10:00:00,34.3,33.8,30.09,SW,225,0.0,-999.0,98,-99.99,,,0.01,Acu-Link.com,2013-02-23 15:00:00,
2013-02-23 10:15:00,34.5,34.0,30.08,SSW,202,0.0,-999.0,98,-99.99,,,0.02,Acu-Link.com,2013-02-23 15:15:00,
2013-02-23 10:30:00,34.9,34.4,30.06,SSW,202,0.0,-999.0,98,-99.99,,,0.02,Acu-Link.com,2013-02-23 15:30:00,
2013-02-23 10:45:00,35.2,34.7,30.05,SSW,202,2.7,-999.0,98,-99.99,,,0.02,Acu-Link.com,2013-02-23 15:45:00,
2013-02-23 11:00:00,34.5,34.0,30.04,SSW,202,2.2,-999.0,98,-99.99,,,0.02,Acu-Link.com,2013-02-23 16:00:00,
2013-02-23 11:16:00,34.7,34.2,30.05,SSW,202,0.0,-999.0,98,-99.99,,,0.04,Acu-Link.com,2013-02-23 16:16:00,
2013-02-23 11:31:00,34.7,34.2,30.04,SSW,202,1.1,-999.0,98,-99.99,,,0.04,Acu-Link.com,2013-02-23 16:31:00,
2013-02-23 11:46:00,34.7,34.2,30.04,SSW,202,1.6,-999.0,98,-99.99,,,0.04,Acu-Link.com,2013-02-23 16:46:00,
2013-02-23 12:01:00,34.9,34.4,30.03,SSW,202,0.0,-999.0,98,-99.99,,,0.04,Acu-Link.com,2013-02-23 17:01:00,
2013-02-23 12:16:00,35.4,34.9,30.02,SSW,202,0.0,-999.0,98,-99.99,,,0.05,Acu-Link.com,2013-02-23 17:16:00,
2013-02-23 12:32:00,35.8,35.3,30.02,SSW,202,1.6,-999.0,98,-99.99,,,0.05,Acu-Link.com,2013-02-23 17:32:00,
2013-02-23 12:47:00,36.5,36.0,30.01,SSW,202,0.0,-999.0,98,-99.99,,,0.05,Acu-Link.com,2013-02-23 17:47:00,
2013-02-23 13:02:00,36.3,35.8,30.02,SSW,202,0.0,-999.0,98,-99.99,,,0.06,Acu-Link.com,2013-02-23 18:02:00,
2013-02-23 13:17:00,36.3,35.8,30.01,SSW,202,1.6,-999.0,98,-99.99,,,0.06,Acu-Link.com,2013-02-23 18:17:00,
2013-02-23 13:33:00,36.0,35.5,30.00,SSW,202,2.2,-999.0,98,-99.99,,,0.06,Acu-Link.com,2013-02-23 18:33:00,
2013-02-23 13:48:00,36.3,35.8,29.99,SSW,202,1.1,-999.0,98,-99.99,,,0.07,Acu-Link.com,2013-02-23 18:48:00,
2013-02-23 14:03:00,36.3,35.8,29.98,SSW,202,0.0,-999.0,98,-99.99,,,0.07,Acu-Link.com,2013-02-23 19:03:00,
2013-02-23 14:18:00,36.3,35.8,29.98,SSW,202,1.6,-999.0,98,-99.99,,,0.08,Acu-Link.com,2013-02-23 19:18:00,
2013-02-23 14:33:00,36.3,35.8,29.98,SSW,202,1.6,-999.0,98,-99.99,,,0.09,Acu-Link.com,2013-02-23 19:33:00,
2013-02-23 14:49:00,36.1,35.6,29.97,SSW,202,0.0,-999.0,98,-99.99,,,0.11,Acu-Link.com,2013-02-23 19:49:00,
2013-02-23 15:04:00,36.1,35.6,29.96,SSW,202,0.0,-999.0,98,-99.99,,,0.11,Acu-Link.com,2013-02-23 20:04:00,
2013-02-23 15:19:00,35.6,35.1,29.96,SSW,202,1.1,-999.0,98,-99.99,,,0.13,Acu-Link.com,2013-02-23 20:19:00,
2013-02-23 15:34:00,35.4,34.9,29.96,NE,45,0.0,-999.0,98,-99.99,,,0.13,Acu-Link.com,2013-02-23 20:34:00,
2013-02-23 15:49:00,35.2,34.7,29.96,NE,45,2.7,-999.0,98,-99.99,,,0.13,Acu-Link.com,2013-02-23 20:49:00,
2013-02-23 16:05:00,35.4,34.9,29.94,NE,45,0.0,-999.0,98,-99.99,,,0.14,Acu-Link.com,2013-02-23 21:05:00,
2013-02-23 16:20:00,35.2,34.7,29.94,NE,45,0.0,-999.0,98,-99.99,,,0.14,Acu-Link.com,2013-02-23 21:20:00,
2013-02-23 16:35:00,35.2,34.7,29.94,NE,45,0.0,-999.0,98,-99.99,,,0.14,Acu-Link.com,2013-02-23 21:35:00,
2013-02-23 16:50:00,35.2,34.7,29.94,NE,45,1.6,-999.0,98,-99.99,,,0.14,Acu-Link.com,2013-02-23 21:50:00,
2013-02-23 17:05:00,35.2,34.7,29.92,NE,45,2.2,-999.0,98,-99.99,,,0.14,Acu-Link.com,2013-02-23 22:05:00,
2013-02-23 17:21:00,35.4,34.9,29.93,NE,45,2.2,-999.0,98,-99.99,,,0.14,Acu-Link.com,2013-02-23 22:21:00,
2013-02-23 17:36:00,35.4,34.9,29.92,NE,45,0.0,-999.0,98,-99.99,,,0.14,Acu-Link.com,2013-02-23 22:36:00,
2013-02-23 17:51:00,35.6,35.1,29.92,NE,45,0.0,-999.0,98,-99.99,,,0.14,Acu-Link.com,2013-02-23 22:51:00,
2013-02-23 18:06:00,35.6,35.1,29.91,NE,45,0.0,-999.0,98,-99.99,,,0.15,Acu-Link.com,2013-02-23 23:06:00,
2013-02-23 18:22:00,35.1,34.6,29.90,NE,45,1.6,-999.0,98,-99.99,,,0.15,Acu-Link.com,2013-02-23 23:22:00,
2013-02-23 18:37:00,35.2,34.7,29.90,NNW,337,2.2,-999.0,98,-99.99,,,0.15,Acu-Link.com,2013-02-23 23:37:00,
2013-02-23 18:52:00,35.1,34.6,29.90,NNW,337,1.6,-999.0,98,-99.99,,,0.15,Acu-Link.com,2013-02-23 23:52:00,
2013-02-23 19:07:00,34.7,34.2,29.91,NNW,337,2.2,-999.0,98,-99.99,,,0.15,Acu-Link.com,2013-02-24 00:07:00,
2013-02-23 19:22:00,35.1,34.6,29.90,NNW,337,2.2,-999.0,98,-99.99,,,0.15,Acu-Link.com,2013-02-24 00:22:00,
2013-02-23 19:38:00,34.7,34.2,29.89,NNW,337,1.1,-999.0,98,-99.99,,,0.15,Acu-Link.com,2013-02-24 00:38:00,
2013-02-23 19:53:00,35.1,34.6,29.90,NNW,337,0.0,-999.0,98,-99.99,,,0.15,Acu-Link.com,2013-02-24 00:53:00,
2013-02-23 20:08:00,35.1,34.6,29.90,NNW,337,0.0,-999.0,98,-99.99,,,0.15,Acu-Link.com,2013-02-24 01:08:00,
2013-02-23 20:23:00,34.5,34.0,29.90,NNW,337,0.0,-999.0,98,-99.99,,,0.17,Acu-Link.com,2013-02-24 01:23:00,
2013-02-23 20:38:00,34.5,34.0,29.90,NNW,337,0.0,-999.0,98,-99.99,,,0.17,Acu-Link.com,2013-02-24 01:38:00,
2013-02-23 20:54:00,34.3,33.8,29.90,NNW,337,0.0,-999.0,98,-99.99,,,0.17,Acu-Link.com,2013-02-24 01:54:00,
2013-02-23 21:09:00,34.2,33.7,29.89,NNW,337,2.2,-999.0,98,-99.99,,,0.17,Acu-Link.com,2013-02-24 02:09:00,
2013-02-23 21:24:00,34.0,33.5,29.88,NNW,337,0.0,-999.0,98,-99.99,,,0.18,Acu-Link.com,2013-02-24 02:24:00,
2013-02-23 21:40:00,34.3,33.8,29.87,NNW,337,3.1,-999.0,98,-99.99,,,0.18,Acu-Link.com,2013-02-24 02:40:00,
2013-02-23 21:55:00,34.5,34.0,29.86,NNW,337,2.2,-999.0,98,-99.99,,,0.18,Acu-Link.com,2013-02-24 02:55:00,
2013-02-23 22:10:00,34.3,33.8,29.85,NNW,337,1.6,-999.0,98,-99.99,,,0.19,Acu-Link.com,2013-02-24 03:10:00,
2013-02-23 22:25:00,34.3,33.8,29.86,NNW,337,0.0,-999.0,98,-99.99,,,0.19,Acu-Link.com,2013-02-24 03:25:00,
2013-02-23 22:40:00,34.5,34.0,29.85,NNW,337,0.0,-999.0,98,-99.99,,,0.20,Acu-Link.com,2013-02-24 03:40:00,
2013-02-23 22:56:00,34.5,34.0,29.84,NNW,337,0.0,-999.0,98,-99.99,,,0.20,Acu-Link.com,2013-02-24 03:56:00,
2013-02-23 23:11:00,34.3,33.8,29.83,NNW,337,0.0,-999.0,98,-99.99,,,0.20,Acu-Link.com,2013-02-24 04:11:00,
2013-02-23 23:26:00,34.3,33.8,29.82,NNW,337,0.0,-999.0,98,-99.99,,,0.20,Acu-Link.com,2013-02-24 04:26:00,
2013-02-23 23:41:00,34.3,33.8,29.82,NNW,337,1.6,-999.0,98,-99.99,,,0.20,Acu-Link.com,2013-02-24 04:41:00,
2013-02-23 23:56:00,34.2,33.7,29.81,NNW,337,0.0,-999.0,98,-99.99,,,0.20,Acu-Link.com,2013-02-24 04:56:00,